Time;durP1;ratioP1;P1;durP2;ratioP2;P2;SDS_P1;SDS_P2;PMS_P1;PMS_P2;Temp;Humidity;BMP_temperature;BMP_pressure;BME280_temperature;BME280_humidity;BME280_pressure;Samples;Min_cycle;Max_cycle;Signal;HPM_P1;HPM_P2
2023/09/24 00:01:03;;;;;;;0.20;0.20;;;;;;;21.33;55.91;102290.94;5053376;28;21161;-63
2023/09/24 00:03:29;;;;;;;0.20;0.20;;;;;;;21.31;55.59;102292.25;5069514;28;20114;-62
2023/09/24 00:05:54;;;;;;;0.10;0.10;;;;;;;21.28;55.68;102287.34;5060065;28;20029;-63
2023/09/24 00:08:20;;;;;;;0.20;0.20;;;;;;;21.21;55.71;102292.22;5046144;28;20052;-64
2023/09/24 00:10:52;;;;;;;0.10;0.10;;;;;;;21.20;56.69;102294.13;5068950;28;20043;-62
2023/09/24 00:13:18;;;;;;;0.10;0.10;;;;;;;21.22;56.68;102289.22;5044989;28;20033;-66
2023/09/24 00:15:44;;;;;;;0.20;0.20;;;;;;;21.26;56.38;102293.06;5049224;28;20064;-64
2023/09/24 00:18:09;;;;;;;0.20;0.20;;;;;;;21.27;56.28;102302.06;5049324;28;20033;-64
2023/09/24 00:20:34;;;;;;;0.20;0.20;;;;;;;21.24;55.75;102303.44;5064280;28;20033;-62
2023/09/24 00:23:00;;;;;;;0.10;0.10;;;;;;;21.24;55.87;102311.66;5052818;28;20044;-62
2023/09/24 00:25:26;;;;;;;0.00;0.00;;;;;;;21.21;54.83;102316.81;5047982;28;20048;-63
2023/09/24 00:27:52;;;;;;;0.20;0.20;;;;;;;21.11;55.36;102320.25;5058501;28;20055;-63
2023/09/24 00:30:17;;;;;;;0.13;0.13;;;;;;;21.07;55.40;102315.59;5056512;28;20086;-64
2023/09/24 00:32:43;;;;;;;0.13;0.13;;;;;;;21.04;55.17;102322.38;5066008;28;20497;-62
2023/09/24 00:35:08;;;;;;;0.10;0.10;;;;;;;21.07;55.87;102327.31;5052369;28;20056;-63
2023/09/24 00:37:34;;;;;;;0.20;0.20;;;;;;;21.07;55.96;102313.66;5062362;28;20384;-63
2023/09/24 00:39:59;;;;;;;0.10;0.10;;;;;;;21.03;55.82;102319.91;5059351;28;20106;-63
2023/09/24 00:42:27;;;;;;;0.20;0.20;;;;;;;21.05;56.29;102318.56;5053103;28;20060;-62
2023/09/24 00:44:53;;;;;;;0.10;0.10;;;;;;;20.95;55.21;102323.91;5063454;28;20059;-63
2023/09/24 00:47:19;;;;;;;0.20;0.20;;;;;;;21.05;55.57;102320.50;5053641;28;20060;-63
2023/09/24 00:49:44;;;;;;;0.10;0.10;;;;;;;20.90;55.96;102326.59;5065212;28;20049;-63
2023/09/24 00:52:10;;;;;;;0.10;0.10;;;;;;;20.91;55.55;102328.25;5067555;28;20029;-64
2023/09/24 00:54:37;;;;;;;0.20;0.20;;;;;;;20.91;55.93;102326.31;5065711;28;20499;-63
2023/09/24 00:57:03;;;;;;;0.20;0.20;;;;;;;20.92;55.63;102327.97;5053083;28;20035;-63
2023/09/24 00:59:30;;;;;;;0.30;0.30;;;;;;;20.91;55.41;102325.50;5069492;28;20048;-63
2023/09/24 01:01:57;;;;;;;0.13;0.13;;;;;;;20.81;55.41;102330.88;5057731;28;20392;-62
2023/09/24 01:04:22;;;;;;;0.20;0.20;;;;;;;20.84;55.30;102328.44;5062700;28;20060;-63
2023/09/24 01:06:48;;;;;;;0.20;0.20;;;;;;;20.83;56.11;102328.72;5052057;28;20381;-64
2023/09/24 01:09:16;;;;;;;0.20;0.20;;;;;;;20.80;55.33;102321.00;5064248;28;20396;-63
2023/09/24 01:11:42;;;;;;;0.10;0.10;;;;;;;20.87;55.37;102319.72;5057124;28;20024;-65
2023/09/24 01:14:08;;;;;;;0.13;0.13;;;;;;;20.75;56.13;102324.53;5057181;28;20404;-62
2023/09/24 01:16:33;;;;;;;0.22;0.22;;;;;;;20.78;55.49;102321.28;5063763;28;20435;-62
2023/09/24 01:18:58;;;;;;;0.20;0.20;;;;;;;20.73;55.95;102321.22;5049529;28;20033;-62
2023/09/24 01:21:27;;;;;;;0.15;0.15;;;;;;;20.89;55.26;102327.69;5053952;28;20039;-63
2023/09/24 01:23:54;;;;;;;0.20;0.20;;;;;;;20.93;55.53;102326.09;5065786;28;20024;-64
2023/09/24 01:26:25;;;;;;;0.10;0.10;;;;;;;20.80;55.83;102323.75;5055179;28;20033;-64
2023/09/24 01:28:51;;;;;;;0.20;0.20;;;;;;;20.78;56.04;102326.75;5064767;28;20098;-64
2023/09/24 01:31:20;;;;;;;0.20;0.20;;;;;;;20.76;55.65;102325.34;5053111;28;20045;-62
2023/09/24 01:33:47;;;;;;;0.20;0.20;;;;;;;20.70;56.10;102331.81;5059772;28;20060;-62
2023/09/24 01:36:13;;;;;;;0.30;0.30;;;;;;;20.73;55.56;102328.59;5060686;28;20392;-62
2023/09/24 01:38:40;;;;;;;0.20;0.20;;;;;;;20.70;56.20;102329.09;5052825;28;20021;-64
2023/09/24 01:41:10;;;;;;;0.20;0.20;;;;;;;20.60;56.36;102329.81;5064530;28;20037;-62
2023/09/24 01:43:36;;;;;;;0.23;0.23;;;;;;;20.61;56.82;102330.63;5048502;28;20392;-63
2023/09/24 01:46:05;;;;;;;0.20;0.20;;;;;;;20.55;56.14;102328.91;5048930;28;20530;-63
2023/09/24 01:48:32;;;;;;;0.20;0.20;;;;;;;20.43;56.34;102330.97;5062888;28;20029;-64
2023/09/24 01:50:58;;;;;;;0.20;0.20;;;;;;;20.50;56.34;102340.59;5061456;28;20033;-62
2023/09/24 01:53:25;;;;;;;0.20;0.20;;;;;;;20.47;56.34;102338.41;5062829;28;20781;-62
2023/09/24 01:55:52;;;;;;;0.22;0.22;;;;;;;20.47;56.18;102338.41;5057172;28;20064;-63
2023/09/24 01:58:17;;;;;;;0.20;0.20;;;;;;;20.51;56.06;102336.81;5058915;28;20135;-63
2023/09/24 02:00:43;;;;;;;0.28;0.28;;;;;;;20.32;56.38;102330.03;5068254;28;20111;-63
2023/09/24 02:03:11;;;;;;;0.20;0.20;;;;;;;20.38;56.84;102333.63;5055915;28;20031;-62
2023/09/24 02:05:39;;;;;;;0.20;0.20;;;;;;;20.36;56.04;102325.72;5068198;28;20029;-62
2023/09/24 02:08:06;;;;;;;0.25;0.25;;;;;;;20.39;56.04;102325.19;5060684;28;20041;-62
2023/09/24 02:10:33;;;;;;;0.20;0.20;;;;;;;20.23;57.08;102323.34;5066550;28;20503;-62
2023/09/24 02:13:00;;;;;;;0.10;0.10;;;;;;;20.43;56.28;102318.13;5055480;28;20029;-63
2023/09/24 02:15:26;;;;;;;0.13;0.13;;;;;;;20.38;56.56;102320.81;5065993;28;20025;-62
2023/09/24 02:17:52;;;;;;;0.10;0.10;;;;;;;20.39;55.76;102324.34;5061123;28;20377;-62
2023/09/24 02:22:57;;;;;;;0.28;0.28;;;;;;;20.15;56.45;102323.72;5054719;28;20551;-62
2023/09/24 02:25:29;;;;;;;0.20;0.20;;;;;;;20.38;56.08;102326.28;5065693;28;20605;-63
2023/09/24 02:27:55;;;;;;;0.20;0.20;;;;;;;20.34;55.99;102327.88;5061046;28;20110;-62
2023/09/24 02:30:22;;;;;;;0.20;0.20;;;;;;;20.17;56.67;102331.69;5058211;28;20079;-63
2023/09/24 02:32:48;;;;;;;0.22;0.22;;;;;;;20.24;56.43;102335.09;5068347;28;20043;-63
2023/09/24 02:35:14;;;;;;;0.25;0.25;;;;;;;20.14;56.28;102335.75;5055218;28;20029;-64
2023/09/24 02:37:41;;;;;;;0.10;0.10;;;;;;;19.98;56.76;102344.78;5065916;28;20028;-63
2023/09/24 02:40:30;;;;;;;0.20;0.20;;;;;;;20.07;57.15;102349.56;5059918;28;20033;-63
2023/09/24 02:43:03;;;;;;;0.20;0.20;;;;;;;20.22;56.27;102343.53;5067810;28;20403;-64
2023/09/24 02:45:29;;;;;;;0.20;0.20;;;;;;;20.20;56.34;102347.59;5058237;28;20557;-64
2023/09/24 02:47:56;;;;;;;0.28;0.28;;;;;;;20.09;56.31;102344.69;5061529;28;20065;-63
2023/09/24 02:50:28;;;;;;;0.20;0.20;;;;;;;20.17;56.30;102336.06;5064377;28;20569;-62
2023/09/24 02:52:56;;;;;;;0.30;0.30;;;;;;;19.76;57.96;102347.47;5054326;28;20290;-64
2023/09/24 02:55:23;;;;;;;0.20;0.20;;;;;;;19.99;56.83;102352.72;5065792;28;20523;-62
2023/09/24 02:57:52;;;;;;;0.20;0.20;;;;;;;20.05;56.32;102351.72;5059778;28;20039;-64
2023/09/24 03:02:57;;;;;;;0.13;0.13;;;;;;;19.84;57.89;102355.22;5067624;28;20044;-62
2023/09/24 03:05:24;;;;;;;0.20;0.20;;;;;;;19.87;57.08;102352.00;5052713;28;20182;-62
2023/09/24 03:07:54;;;;;;;0.20;0.20;;;;;;;20.09;56.79;102357.50;5059673;28;20354;-63
2023/09/24 03:10:21;;;;;;;0.28;0.28;;;;;;;19.68;58.36;102350.59;5070984;28;20508;-62
2023/09/24 03:12:47;;;;;;;0.20;0.20;;;;;;;19.80;57.52;102361.44;5053893;28;20392;-64
2023/09/24 03:15:13;;;;;;;0.10;0.10;;;;;;;19.87;56.85;102362.09;5066664;28;20028;-62
2023/09/24 03:17:40;;;;;;;0.17;0.17;;;;;;;19.88;56.62;102364.56;5058541;28;20047;-64
2023/09/24 03:20:16;;;;;;;0.22;0.22;;;;;;;19.34;58.86;102365.28;5059041;28;20088;-64
2023/09/24 03:22:46;;;;;;;0.30;0.30;;;;;;;19.74;56.70;102371.44;5065212;28;20562;-64
2023/09/24 03:25:13;;;;;;;0.20;0.20;;;;;;;19.78;57.12;102369.03;5063874;28;20033;-63
2023/09/24 03:27:39;;;;;;;0.20;0.20;;;;;;;19.68;56.97;102371.59;5057855;28;20139;-62
2023/09/24 03:30:07;;;;;;;0.25;0.25;;;;;;;19.56;57.11;102382.59;5059756;28;20085;-65
2023/09/24 03:32:34;;;;;;;0.30;0.30;;;;;;;19.65;56.81;102377.56;5065371;28;20029;-63
2023/09/24 03:34:59;;;;;;;0.20;0.20;;;;;;;19.82;55.80;102386.56;5053692;28;20067;-62
2023/09/24 03:37:25;;;;;;;0.20;0.20;;;;;;;19.64;56.73;102386.81;5064299;28;20037;-63
2023/09/24 03:39:50;;;;;;;0.30;0.30;;;;;;;19.59;57.04;102386.72;5048857;28;20484;-64
2023/09/24 03:42:15;;;;;;;0.22;0.22;;;;;;;19.54;57.32;102383.91;5062504;28;20024;-62
2023/09/24 03:44:41;;;;;;;0.10;0.10;;;;;;;19.63;56.42;102383.28;5054542;28;20039;-63
2023/09/24 03:47:06;;;;;;;0.20;0.20;;;;;;;19.58;57.13;102391.34;5066467;28;20029;-62
2023/09/24 03:49:32;;;;;;;0.20;0.20;;;;;;;19.70;56.39;102383.91;5056390;28;20504;-62
2023/09/24 03:51:57;;;;;;;0.20;0.20;;;;;;;19.61;56.27;102387.31;5059882;28;20029;-63
2023/09/24 03:54:22;;;;;;;0.30;0.30;;;;;;;19.72;56.56;102391.84;5063367;28;20027;-62
2023/09/24 03:56:48;;;;;;;0.20;0.20;;;;;;;19.60;56.93;102391.09;5053629;28;20024;-62
2023/09/24 03:59:13;;;;;;;0.20;0.20;;;;;;;19.32;57.77;102402.03;5065827;28;20090;-62
2023/09/24 04:01:39;;;;;;;0.20;0.20;;;;;;;19.43;57.77;102402.00;5055777;28;20032;-63
2023/09/24 04:04:05;;;;;;;0.30;0.30;;;;;;;19.62;56.99;102395.25;5069053;28;20033;-64
2023/09/24 04:06:30;;;;;;;0.20;0.20;;;;;;;19.65;56.30;102402.13;5068741;28;20051;-62
2023/09/24 04:08:56;;;;;;;0.20;0.20;;;;;;;19.75;56.28;102405.00;5069048;28;20027;-62
2023/09/24 04:11:21;;;;;;;0.17;0.17;;;;;;;19.57;56.58;102405.25;5068759;28;20036;-62
2023/09/24 04:13:47;;;;;;;0.30;0.30;;;;;;;19.33;58.05;102411.91;5068747;28;20423;-63
2023/09/24 04:16:13;;;;;;;0.30;0.30;;;;;;;19.52;57.33;102400.53;5068933;28;20028;-62
2023/09/24 04:18:41;;;;;;;0.20;0.20;;;;;;;19.55;56.64;102410.94;5048835;28;20068;-63
2023/09/24 04:21:17;;;;;;;0.30;0.30;;;;;;;19.22;58.05;102417.13;5048067;28;20091;-63
2023/09/24 04:23:43;;;;;;;0.20;0.20;;;;;;;19.36;57.07;102427.78;5052274;28;20048;-63
2023/09/24 04:26:20;;;;;;;0.22;0.22;;;;;;;19.60;56.13;102416.47;5049140;28;20044;-63
2023/09/24 04:28:46;;;;;;;0.20;0.20;;;;;;;19.46;56.22;102415.13;5065476;28;20029;-64
2023/09/24 04:31:12;;;;;;;0.20;0.20;;;;;;;19.28;56.61;102413.41;5048939;28;20052;-63
2023/09/24 04:33:37;;;;;;;0.32;0.32;;;;;;;19.40;55.91;102416.13;5056624;28;20496;-62
2023/09/24 04:36:05;;;;;;;0.20;0.20;;;;;;;19.32;56.34;102418.41;5058708;28;20024;-64
2023/09/24 04:38:30;;;;;;;0.10;0.10;;;;;;;19.30;56.37;102421.38;5055276;28;21011;-64
2023/09/24 04:40:56;;;;;;;0.22;0.22;;;;;;;19.25;56.09;102424.81;5052509;28;20037;-63
2023/09/24 04:43:21;;;;;;;0.20;0.20;;;;;;;19.22;55.87;102427.22;5068839;28;20032;-62
2023/09/24 04:45:47;;;;;;;0.30;0.30;;;;;;;19.26;55.95;102426.47;5060207;28;20040;-65
2023/09/24 04:48:12;;;;;;;0.38;0.38;;;;;;;18.97;57.01;102423.97;5061343;28;20035;-61
2023/09/24 04:50:38;;;;;;;0.30;0.30;;;;;;;19.12;57.19;102429.75;5053889;28;20025;-62
2023/09/24 04:53:05;;;;;;;0.20;0.20;;;;;;;19.26;56.12;102433.84;5065920;28;20100;-64
2023/09/24 04:55:32;;;;;;;0.20;0.20;;;;;;;19.16;56.75;102439.91;5055390;28;20024;-63
2023/09/24 04:57:57;;;;;;;0.22;0.22;;;;;;;18.95;57.50;102428.84;5058734;28;20381;-63
2023/09/24 05:00:22;;;;;;;0.28;0.28;;;;;;;19.11;56.36;102428.91;5062450;28;20029;-62
2023/09/24 05:02:48;;;;;;;0.20;0.20;;;;;;;19.10;56.74;102432.69;5052573;28;20504;-62
2023/09/24 05:05:15;;;;;;;0.13;0.13;;;;;;;18.76;58.25;102438.25;5064608;28;20431;-62
2023/09/24 05:07:40;;;;;;;0.22;0.22;;;;;;;19.00;56.98;102440.69;5048482;28;20091;-62
2023/09/24 05:10:07;;;;;;;0.20;0.20;;;;;;;18.87;57.03;102438.22;5059969;28;20036;-63
2023/09/24 05:12:33;;;;;;;0.28;0.28;;;;;;;18.94;56.69;102438.94;5053597;28;20033;-62
2023/09/24 05:14:58;;;;;;;0.20;0.20;;;;;;;18.86;57.24;102443.91;5066099;28;20036;-63
2023/09/24 05:17:23;;;;;;;0.40;0.40;;;;;;;18.73;57.66;102444.19;5063389;28;20517;-63
2023/09/24 05:19:49;;;;;;;0.30;0.30;;;;;;;18.99;56.98;102449.91;5057323;28;20069;-62
2023/09/24 05:22:14;;;;;;;0.10;0.10;;;;;;;19.17;55.91;102463.38;5068529;28;20032;-64
2023/09/24 05:24:40;;;;;;;0.30;0.30;;;;;;;19.02;56.88;102460.34;5065294;28;20032;-62
2023/09/24 05:27:05;;;;;;;0.20;0.20;;;;;;;18.86;57.09;102461.09;5052189;28;20437;-63
2023/09/24 05:29:30;;;;;;;0.20;0.20;;;;;;;18.72;57.76;102458.88;5060116;28;20029;-61
2023/09/24 05:31:56;;;;;;;0.28;0.28;;;;;;;18.78;57.23;102457.91;5059841;28;20024;-62
2023/09/24 05:34:21;;;;;;;0.30;0.30;;;;;;;18.49;58.54;102459.75;5058888;28;20077;-63
2023/09/24 05:36:49;;;;;;;0.20;0.20;;;;;;;18.73;57.24;102463.25;5059804;28;20040;-63
2023/09/24 05:39:15;;;;;;;0.20;0.20;;;;;;;18.92;57.02;102465.59;5056776;28;20103;-62
2023/09/24 05:41:40;;;;;;;0.20;0.20;;;;;;;18.72;56.88;102461.59;5064940;28;20499;-63
2023/09/24 05:44:06;;;;;;;0.30;0.30;;;;;;;18.21;58.74;102465.88;5063587;28;20372;-63
2023/09/24 05:46:31;;;;;;;0.35;0.35;;;;;;;18.35;59.20;102464.56;5057546;28;20044;-64
2023/09/24 05:48:58;;;;;;;0.35;0.35;;;;;;;18.25;58.53;102477.94;5068454;28;20480;-62
2023/09/24 05:51:24;;;;;;;0.17;0.17;;;;;;;18.79;57.69;102471.28;5059015;28;20128;-62
2023/09/24 05:53:50;;;;;;;0.20;0.20;;;;;;;18.99;57.03;102479.88;5063271;28;20346;-64
2023/09/24 05:56:15;;;;;;;0.20;0.20;;;;;;;18.91;56.85;102480.25;5064760;28;20032;-62
2023/09/24 05:58:41;;;;;;;0.30;0.30;;;;;;;18.92;56.60;102487.38;5056231;28;20037;-61
2023/09/24 06:01:06;;;;;;;0.20;0.20;;;;;;;19.13;56.16;102492.19;5058993;28;20143;-63
2023/09/24 06:03:32;;;;;;;0.20;0.20;;;;;;;19.07;56.14;102492.31;5071848;28;20040;-63
2023/09/24 06:05:57;;;;;;;0.30;0.30;;;;;;;18.93;57.07;102483.56;5062131;28;20029;-62
2023/09/24 06:08:23;;;;;;;0.20;0.20;;;;;;;18.44;58.37;102488.75;5051713;28;20037;-63
2023/09/24 06:10:48;;;;;;;0.30;0.30;;;;;;;18.92;57.29;102490.13;5068157;28;20044;-64
2023/09/24 06:13:15;;;;;;;0.22;0.22;;;;;;;18.81;57.65;102493.66;5055977;28;20491;-61
2023/09/24 06:15:41;;;;;;;0.30;0.30;;;;;;;18.29;58.90;102495.47;5070364;28;20040;-64
2023/09/24 06:18:07;;;;;;;0.30;0.30;;;;;;;18.59;58.86;102498.09;5060715;28;20121;-63
2023/09/24 06:20:37;;;;;;;0.30;0.30;;;;;;;16.91;64.75;102503.91;5066538;28;20057;-63
2023/09/24 06:23:02;;;;;;;0.20;0.20;;;;;;;18.69;59.42;102506.47;5068586;28;20040;-62
2023/09/24 06:25:28;;;;;;;0.30;0.30;;;;;;;19.16;57.11;102507.22;5065113;28;20029;-64
2023/09/24 06:27:54;;;;;;;0.30;0.30;;;;;;;19.34;56.30;102514.44;5061272;28;20025;-62
2023/09/24 06:30:19;;;;;;;0.30;0.30;;;;;;;19.29;56.87;102509.66;5056499;28;20060;-64
2023/09/24 06:32:45;;;;;;;0.20;0.20;;;;;;;19.15;57.26;102514.56;5068454;28;20082;-63
2023/09/24 06:35:10;;;;;;;0.10;0.10;;;;;;;19.48;56.07;102516.59;5054856;28;20563;-64
2023/09/24 06:37:35;;;;;;;0.17;0.17;;;;;;;18.82;59.19;102527.19;5064026;28;20095;-63
2023/09/24 06:40:01;;;;;;;0.20;0.20;;;;;;;19.64;56.33;102518.56;5061762;28;20025;-63
2023/09/24 06:42:26;;;;;;;0.13;0.13;;;;;;;19.74;55.92;102523.38;5057004;28;20051;-62
2023/09/24 06:44:52;;;;;;;0.30;0.30;;;;;;;19.65;56.60;102525.69;5067340;28;20047;-62
2023/09/24 06:47:18;;;;;;;0.20;0.20;;;;;;;19.68;56.82;102524.34;5055568;28;20033;-63
2023/09/24 06:49:43;;;;;;;0.20;0.20;;;;;;;19.87;56.08;102531.28;5062794;28;20511;-62
2023/09/24 06:52:08;;;;;;;0.20;0.20;;;;;;;19.76;56.76;102534.88;5063871;28;20029;-62
2023/09/24 06:54:34;;;;;;;0.30;0.30;;;;;;;19.18;57.90;102533.16;5055766;28;20041;-62
2023/09/24 06:57:00;;;;;;;0.30;0.30;;;;;;;19.79;56.67;102537.94;5068068;28;20032;-63
2023/09/24 06:59:25;;;;;;;0.13;0.13;;;;;;;19.70;57.22;102538.56;5056928;28;20029;-62
2023/09/24 07:01:52;;;;;;;0.20;0.20;;;;;;;19.56;57.85;102548.94;5070833;28;20407;-63
2023/09/24 07:04:18;;;;;;;0.30;0.30;;;;;;;19.70;57.13;102546.75;5058405;28;20033;-62
2023/09/24 07:06:43;;;;;;;0.10;0.10;;;;;;;19.55;58.14;102538.28;5050830;28;20033;-62
2023/09/24 07:09:09;;;;;;;0.20;0.20;;;;;;;19.72;57.50;102550.06;5067745;28;20473;-62
2023/09/24 07:11:36;;;;;;;0.20;0.20;;;;;;;20.00;56.90;102541.88;5057751;28;20059;-65
2023/09/24 07:14:04;;;;;;;0.20;0.20;;;;;;;20.08;56.48;102542.28;5060083;28;20069;-65
2023/09/24 07:16:29;;;;;;;0.22;0.22;;;;;;;20.22;56.27;102547.47;5052258;28;20036;-65
2023/09/24 07:18:56;;;;;;;0.20;0.20;;;;;;;20.46;56.13;102543.50;5066514;28;20117;-64
2023/09/24 07:21:25;;;;;;;0.20;0.20;;;;;;;20.57;55.78;102540.66;5056285;28;20108;-63
2023/09/24 07:23:52;;;;;;;0.17;0.17;;;;;;;20.49;55.44;102543.81;5068148;28;20024;-64
2023/09/24 07:26:18;;;;;;;0.30;0.30;;;;;;;20.79;55.18;102547.00;5057689;28;20043;-63
2023/09/24 07:28:44;;;;;;;0.20;0.20;;;;;;;20.51;56.40;102546.28;5065228;28;20037;-63
2023/09/24 07:31:19;;;;;;;0.30;0.30;;;;;;;20.81;55.86;102550.28;5053843;28;20503;-63
2023/09/24 07:33:44;;;;;;;0.20;0.20;;;;;;;19.97;58.54;102561.44;5062216;28;20021;-63
2023/09/24 07:36:10;;;;;;;0.30;0.30;;;;;;;20.07;58.67;102553.44;5061985;28;20486;-63
2023/09/24 07:38:36;;;;;;;0.13;0.13;;;;;;;20.18;58.08;102555.28;5065445;28;20147;-63
2023/09/24 07:41:01;;;;;;;0.30;0.30;;;;;;;20.31;57.42;102562.34;5053478;28;20032;-63
2023/09/24 07:43:28;;;;;;;0.20;0.20;;;;;;;21.05;55.47;102559.13;5066352;28;20048;-63
2023/09/24 07:45:53;;;;;;;0.30;0.30;;;;;;;20.74;56.77;102557.84;5066335;28;20064;-62
2023/09/24 07:48:19;;;;;;;0.10;0.10;;;;;;;21.18;54.76;102571.59;5066555;28;20028;-63
2023/09/24 07:50:53;;;;;;;0.20;0.20;;;;;;;21.55;54.74;102553.47;5067003;28;20369;-64
2023/09/24 07:53:18;;;;;;;0.20;0.20;;;;;;;21.06;55.76;102568.16;5064187;28;20025;-62
2023/09/24 07:55:44;;;;;;;0.30;0.30;;;;;;;21.46;55.14;102564.03;5065616;28;20043;-62
2023/09/24 07:58:09;;;;;;;0.20;0.20;;;;;;;21.33;55.56;102561.69;5066331;28;20628;-63
2023/09/24 08:00:34;;;;;;;0.10;0.10;;;;;;;21.65;54.67;102562.63;5066478;28;20036;-62
2023/09/24 08:03:00;;;;;;;0.20;0.20;;;;;;;21.51;54.54;102572.31;5064742;28;20040;-63
2023/09/24 08:05:25;;;;;;;0.20;0.20;;;;;;;21.55;54.75;102576.19;5063449;28;20036;-63
2023/09/24 08:07:51;;;;;;;0.20;0.20;;;;;;;21.78;53.98;102586.84;5066268;28;20055;-64
2023/09/24 08:10:16;;;;;;;0.20;0.20;;;;;;;21.92;54.10;102583.72;5066674;28;20037;-63
2023/09/24 08:12:42;;;;;;;0.17;0.17;;;;;;;21.84;54.04;102583.09;5064762;28;20056;-65
2023/09/24 08:15:07;;;;;;;0.20;0.20;;;;;;;21.88;54.01;102588.88;5060700;28;20039;-62
2023/09/24 08:17:33;;;;;;;0.22;0.22;;;;;;;21.16;56.20;102590.16;5061703;28;20451;-64
2023/09/24 08:19:58;;;;;;;0.10;0.10;;;;;;;21.84;53.67;102588.59;5066020;28;20049;-64
2023/09/24 08:22:23;;;;;;;0.20;0.20;;;;;;;21.91;54.48;102593.88;5065853;28;20037;-63
2023/09/24 08:24:49;;;;;;;0.10;0.10;;;;;;;22.29;53.52;102596.41;5064515;28;20043;-63
2023/09/24 08:27:14;;;;;;;0.10;0.10;;;;;;;22.34;53.38;102592.88;5063332;28;20074;-63
2023/09/24 08:29:39;;;;;;;0.20;0.20;;;;;;;22.63;52.69;102602.47;5065549;28;20028;-62
2023/09/24 08:32:05;;;;;;;0.20;0.20;;;;;;;22.27;53.70;102595.84;5060708;28;20032;-71
2023/09/24 08:34:30;;;;;;;0.20;0.20;;;;;;;22.64;52.91;102595.91;5067232;28;20033;-72
2023/09/24 08:36:56;;;;;;;0.20;0.20;;;;;;;22.94;52.52;102592.56;5065094;28;20033;-72
2023/09/24 08:39:21;;;;;;;0.20;0.20;;;;;;;22.56;53.55;102601.84;5066320;28;20569;-71
2023/09/24 08:41:46;;;;;;;0.20;0.20;;;;;;;22.46;53.07;102604.50;5068378;28;20030;-73
2023/09/24 08:44:17;;;;;;;0.10;0.10;;;;;;;22.88;52.74;102602.63;5067778;28;20345;-72
2023/09/24 08:46:44;;;;;;;0.20;0.20;;;;;;;22.88;52.69;102607.31;5064624;28;20796;-72
2023/09/24 08:49:10;;;;;;;0.10;0.10;;;;;;;23.14;51.72;102598.13;5066005;28;20106;-72
2023/09/24 08:51:36;;;;;;;0.10;0.10;;;;;;;22.83;52.69;102599.06;5063850;28;20032;-72
2023/09/24 08:54:03;;;;;;;0.20;0.20;;;;;;;23.27;51.34;102593.00;5065115;28;20028;-73
2023/09/24 08:56:29;;;;;;;0.10;0.10;;;;;;;23.69;51.32;102605.81;5063017;28;20067;-72
2023/09/24 08:58:54;;;;;;;0.10;0.10;;;;;;;23.57;50.84;102600.56;5064968;28;20041;-72
2023/09/24 09:01:20;;;;;;;0.13;0.13;;;;;;;23.68;51.27;102596.78;5067956;28;20503;-74
2023/09/24 09:03:47;;;;;;;0.10;0.10;;;;;;;23.79;49.59;102594.84;5051823;28;20033;-72
2023/09/24 09:06:29;;;;;;;0.20;0.20;;;;;;;23.18;50.79;102591.84;5062858;28;20035;-71
2023/09/24 09:08:55;;;;;;;0.17;0.17;;;;;;;22.56;51.38;102591.69;5059946;28;20388;-73
2023/09/24 09:11:21;;;;;;;0.20;0.20;;;;;;;23.31;50.25;102590.59;5053956;28;20037;-72
2023/09/24 09:13:49;;;;;;;0.10;0.10;;;;;;;23.16;51.69;102595.94;5065002;28;20050;-72
2023/09/24 09:16:16;;;;;;;0.10;0.10;;;;;;;23.72;49.06;102591.56;5053976;28;20167;-71
2023/09/24 09:18:42;;;;;;;0.10;0.10;;;;;;;24.06;47.86;102596.31;5057410;28;20049;-72
2023/09/24 09:21:07;;;;;;;0.10;0.10;;;;;;;23.59;48.85;102581.09;5067594;28;20513;-73
2023/09/24 09:23:42;;;;;;;0.10;0.10;;;;;;;23.05;50.08;102591.50;5064921;28;20029;-71
2023/09/24 09:26:07;;;;;;;0.10;0.10;;;;;;;23.85;48.14;102583.63;5052974;28;20430;-71
2023/09/24 09:28:34;;;;;;;0.10;0.10;;;;;;;23.32;49.09;102584.00;5062975;28;20037;-71
2023/09/24 09:31:06;;;;;;;0.10;0.10;;;;;;;24.28;47.74;102583.16;5062573;28;20036;-72
2023/09/24 09:33:39;;;;;;;0.10;0.10;;;;;;;24.32;47.42;102576.03;5063045;28;20031;-72
2023/09/24 09:36:28;;;;;;;0.10;0.10;;;;;;;23.88;47.91;102574.81;5067074;28;20035;-72
2023/09/24 09:38:57;;;;;;;0.10;0.10;;;;;;;24.48;46.19;102581.50;5064848;28;20040;-72
2023/09/24 09:41:28;;;;;;;0.10;0.10;;;;;;;24.39;45.31;102576.56;5064012;28;20064;-71
2023/09/24 09:43:57;;;;;;;0.10;0.10;;;;;;;23.93;45.43;102574.84;5064598;28;20044;-71
2023/09/24 09:46:23;;;;;;;0.10;0.10;;;;;;;24.39;45.63;102570.25;5065803;28;20064;-73
2023/09/24 09:48:59;;;;;;;0.10;0.10;;;;;;;23.77;45.36;102564.94;5066360;28;20094;-72
2023/09/24 09:51:25;;;;;;;0.10;0.10;;;;;;;23.47;46.31;102562.94;5062722;28;20048;-71
2023/09/24 09:53:53;;;;;;;0.10;0.10;;;;;;;23.77;46.35;102575.09;5065940;28;20056;-70
2023/09/24 09:56:20;;;;;;;0.10;0.10;;;;;;;24.70;43.21;102563.63;5066657;28;20028;-71
2023/09/24 09:58:51;;;;;;;0.10;0.10;;;;;;;24.87;42.96;102555.91;5063152;28;20395;-72
2023/09/24 10:01:20;;;;;;;;;;;;;;;24.31;44.73;102562.56;5067592;28;20036;-71
2023/09/24 10:03:47;;;;;;;0.10;0.10;;;;;;;24.06;45.20;102560.59;5067196;28;19912;-70
2023/09/24 10:06:13;;;;;;;0.10;0.10;;;;;;;24.81;44.35;102558.94;5067520;28;20029;-70
2023/09/24 10:08:40;;;;;;;0.10;0.10;;;;;;;25.28;42.48;102554.66;5067392;28;20032;-71
2023/09/24 10:11:08;;;;;;;0.10;0.10;;;;;;;25.26;42.80;102547.78;5067067;28;20055;-72
2023/09/24 10:13:52;;;;;;;0.10;0.10;;;;;;;25.67;42.98;102540.97;5067343;28;20033;-71
2023/09/24 10:16:27;;;;;;;0.10;0.10;;;;;;;25.14;43.00;102545.34;5063880;28;20049;-72
2023/09/24 10:19:19;;;;;;;0.10;0.10;;;;;;;26.37;41.35;102549.84;5069950;28;20377;-72
2023/09/24 10:21:45;;;;;;;0.10;0.10;;;;;;;25.19;42.65;102537.09;5066560;28;20097;-72
2023/09/24 10:24:10;;;;;;;0.10;0.10;;;;;;;25.80;42.75;102542.28;5067964;28;20025;-73
2023/09/24 10:26:48;;;;;;;0.10;0.10;;;;;;;25.43;42.82;102530.94;5065217;28;20484;-71
2023/09/24 10:29:15;;;;;;;0.00;0.00;;;;;;;26.01;42.02;102538.28;5069076;28;20087;-72
2023/09/24 10:32:08;;;;;;;0.10;0.10;;;;;;;25.57;42.93;102534.72;5068075;28;20041;-72
2023/09/24 10:34:55;;;;;;;0.10;0.10;;;;;;;26.50;40.90;102541.72;5068810;28;20487;-72
2023/09/24 10:37:26;;;;;;;0.10;0.10;;;;;;;25.89;42.29;102541.38;5068667;28;20044;-71
2023/09/24 10:40:13;;;;;;;0.00;0.00;;;;;;;26.69;41.84;102542.63;5069677;28;20036;-71
2023/09/24 10:42:41;;;;;;;0.10;0.10;;;;;;;26.55;40.37;102544.44;5069705;28;20040;-71
2023/09/24 10:45:07;;;;;;;0.00;0.00;;;;;;;25.58;43.35;102541.88;5068283;28;20043;-72
2023/09/24 10:47:42;;;;;;;0.10;0.10;;;;;;;26.82;41.34;102538.41;5068658;28;20229;-71
2023/09/24 10:50:11;;;;;;;0.08;0.08;;;;;;;26.83;41.03;102537.25;5068161;28;20458;-71
2023/09/24 10:52:49;;;;;;;0.00;0.00;;;;;;;26.81;40.44;102540.31;5067769;28;20044;-71
2023/09/24 10:55:20;;;;;;;0.05;0.05;;;;;;;26.88;39.81;102532.53;5066990;28;20168;-72
2023/09/24 10:57:53;;;;;;;0.08;0.08;;;;;;;26.83;39.75;102527.06;5068494;28;20052;-72
2023/09/24 11:00:22;;;;;;;0.10;0.10;;;;;;;27.05;39.76;102521.00;5069461;28;20135;-70
2023/09/24 11:02:54;;;;;;;0.00;0.00;;;;;;;26.82;40.12;102514.41;5069696;28;20052;-71
2023/09/24 11:05:20;;;;;;;0.10;0.10;;;;;;;27.70;39.96;102519.31;5069115;28;20068;-71
2023/09/24 11:07:45;;;;;;;0.00;0.00;;;;;;;26.62;40.52;102519.28;5069381;28;20074;-71
2023/09/24 11:10:10;;;;;;;0.00;0.00;;;;;;;27.10;39.77;102511.84;5069044;28;20102;-71
2023/09/24 11:12:36;;;;;;;0.03;0.03;;;;;;;27.27;39.79;102514.94;5068427;28;20045;-71
2023/09/24 11:15:02;;;;;;;0.03;0.03;;;;;;;27.15;39.91;102520.06;5069974;28;20472;-72
2023/09/24 11:17:28;;;;;;;0.10;0.10;;;;;;;27.26;38.75;102510.53;5069367;28;20045;-71
2023/09/24 11:19:53;;;;;;;0.00;0.00;;;;;;;26.91;39.24;102509.84;5068396;28;20036;-71
2023/09/24 11:22:24;;;;;;;0.00;0.00;;;;;;;27.06;39.24;102502.50;5069041;28;20082;-73
2023/09/24 11:25:25;;;;;;;0.00;0.00;;;;;;;27.52;38.06;102514.59;5067255;28;20123;-73
2023/09/24 11:27:52;;;;;;;0.00;0.00;;;;;;;27.04;38.50;102513.84;5006156;28;20049;-71
2023/09/24 11:30:21;;;;;;;0.00;0.00;;;;;;;27.21;38.30;102518.88;5005308;28;20046;-71